sensor_id;sensor_type;location;lat;lon;timestamp;P1;durP1;ratioP1;P2;durP2;ratioP2
76777;SDS011;65721;50.118;8.714;2022-12-13T00:01:28;20.60;;;9.90;;
76777;SDS011;65721;50.118;8.714;2022-12-13T00:03:55;21.80;;;9.70;;
76777;SDS011;65721;50.118;8.714;2022-12-13T00:06:22;18.20;;;8.50;;
76777;SDS011;65721;50.118;8.714;2022-12-13T00:08:48;19.80;;;9.60;;
76777;SDS011;65721;50.118;8.714;2022-12-13T00:11:14;20.60;;;10.00;;
76777;SDS011;65721;50.118;8.714;2022-12-13T00:13:40;22.30;;;10.20;;
76777;SDS011;65721;50.118;8.714;2022-12-13T00:16:08;18.50;;;9.00;;
76777;SDS011;65721;50.118;8.714;2022-12-13T00:18:36;15.10;;;8.90;;
76777;SDS011;65721;50.118;8.714;2022-12-13T00:21:03;21.30;;;9.70;;
76777;SDS011;65721;50.118;8.714;2022-12-13T00:23:31;19.10;;;8.60;;
76777;SDS011;65721;50.118;8.714;2022-12-13T00:26:03;21.80;;;10.20;;
76777;SDS011;65721;50.118;8.714;2022-12-13T00:28:34;18.50;;;9.00;;
76777;SDS011;65721;50.118;8.714;2022-12-13T00:31:00;18.70;;;9.80;;
76777;SDS011;65721;50.118;8.714;2022-12-13T00:33:26;21.40;;;10.00;;
76777;SDS011;65721;50.118;8.714;2022-12-13T00:35:52;20.50;;;8.70;;
76777;SDS011;65721;50.118;8.714;2022-12-13T00:38:18;19.10;;;9.10;;
76777;SDS011;65721;50.118;8.714;2022-12-13T00:40:43;19.40;;;8.90;;
76777;SDS011;65721;50.118;8.714;2022-12-13T00:43:08;21.30;;;9.60;;
76777;SDS011;65721;50.118;8.714;2022-12-13T00:45:34;34.00;;;13.10;;
76777;SDS011;65721;50.118;8.714;2022-12-13T00:47:59;53.60;;;18.80;;
76777;SDS011;65721;50.118;8.714;2022-12-13T00:50:25;48.90;;;19.50;;
76777;SDS011;65721;50.118;8.714;2022-12-13T00:52:50;52.30;;;21.20;;
76777;SDS011;65721;50.118;8.714;2022-12-13T00:55:16;20.40;;;9.50;;
76777;SDS011;65721;50.118;8.714;2022-12-13T00:57:41;17.90;;;9.70;;
76777;SDS011;65721;50.118;8.714;2022-12-13T01:00:08;19.50;;;9.40;;
76777;SDS011;65721;50.118;8.714;2022-12-13T01:02:34;23.10;;;10.70;;
76777;SDS011;65721;50.118;8.714;2022-12-13T01:05:00;19.30;;;9.70;;
76777;SDS011;65721;50.118;8.714;2022-12-13T01:07:26;18.20;;;8.70;;
76777;SDS011;65721;50.118;8.714;2022-12-13T01:09:51;18.40;;;9.50;;
76777;SDS011;65721;50.118;8.714;2022-12-13T01:12:17;23.00;;;9.70;;
76777;SDS011;65721;50.118;8.714;2022-12-13T01:14:43;19.90;;;10.20;;
76777;SDS011;65721;50.118;8.714;2022-12-13T01:17:08;19.00;;;9.20;;
76777;SDS011;65721;50.118;8.714;2022-12-13T01:19:34;21.60;;;9.60;;
76777;SDS011;65721;50.118;8.714;2022-12-13T01:22:01;21.50;;;9.30;;
76777;SDS011;65721;50.118;8.714;2022-12-13T01:24:29;21.80;;;9.70;;
76777;SDS011;65721;50.118;8.714;2022-12-13T01:26:55;22.10;;;9.10;;
76777;SDS011;65721;50.118;8.714;2022-12-13T01:29:21;18.70;;;9.90;;
76777;SDS011;65721;50.118;8.714;2022-12-13T01:31:47;20.60;;;9.20;;
76777;SDS011;65721;50.118;8.714;2022-12-13T01:34:18;21.50;;;9.60;;
76777;SDS011;65721;50.118;8.714;2022-12-13T01:36:45;19.40;;;9.70;;
76777;SDS011;65721;50.118;8.714;2022-12-13T01:39:12;21.40;;;10.00;;
76777;SDS011;65721;50.118;8.714;2022-12-13T01:41:41;22.50;;;10.60;;
76777;SDS011;65721;50.118;8.714;2022-12-13T01:47:15;13.90;;;7.60;;
76777;SDS011;65721;50.118;8.714;2022-12-13T01:49:46;21.40;;;8.60;;
76777;SDS011;65721;50.118;8.714;2022-12-13T01:52:13;16.60;;;7.70;;
76777;SDS011;65721;50.118;8.714;2022-12-13T01:54:43;36.40;;;12.00;;
76777;SDS011;65721;50.118;8.714;2022-12-13T01:57:13;57.10;;;21.70;;
76777;SDS011;65721;50.118;8.714;2022-12-13T01:59:41;47.10;;;17.40;;
76777;SDS011;65721;50.118;8.714;2022-12-13T02:02:08;41.70;;;17.20;;
76777;SDS011;65721;50.118;8.714;2022-12-13T02:04:59;23.20;;;10.60;;
76777;SDS011;65721;50.118;8.714;2022-12-13T02:07:28;19.50;;;8.10;;
76777;SDS011;65721;50.118;8.714;2022-12-13T02:12:23;16.90;;;7.30;;
76777;SDS011;65721;50.118;8.714;2022-12-13T02:14:53;15.40;;;8.30;;
76777;SDS011;65721;50.118;8.714;2022-12-13T02:19:56;17.70;;;8.80;;
76777;SDS011;65721;50.118;8.714;2022-12-13T02:31:08;20.70;;;8.80;;
76777;SDS011;65721;50.118;8.714;2022-12-13T02:33:51;16.10;;;8.30;;
76777;SDS011;65721;50.118;8.714;2022-12-13T02:36:43;15.90;;;7.80;;
76777;SDS011;65721;50.118;8.714;2022-12-13T02:39:22;15.20;;;7.40;;
76777;SDS011;65721;50.118;8.714;2022-12-13T02:41:56;21.10;;;8.70;;
76777;SDS011;65721;50.118;8.714;2022-12-13T02:44:34;17.50;;;7.80;;
76777;SDS011;65721;50.118;8.714;2022-12-13T02:47:08;15.80;;;8.30;;
76777;SDS011;65721;50.118;8.714;2022-12-13T02:49:39;14.60;;;7.60;;
76777;SDS011;65721;50.118;8.714;2022-12-13T02:52:08;19.90;;;9.30;;
76777;SDS011;65721;50.118;8.714;2022-12-13T02:54:36;15.80;;;7.50;;
76777;SDS011;65721;50.118;8.714;2022-12-13T02:57:02;20.50;;;8.50;;
76777;SDS011;65721;50.118;8.714;2022-12-13T02:59:34;18.50;;;8.70;;
76777;SDS011;65721;50.118;8.714;2022-12-13T03:04:57;32.40;;;11.80;;
76777;SDS011;65721;50.118;8.714;2022-12-13T03:07:54;53.70;;;16.50;;
76777;SDS011;65721;50.118;8.714;2022-12-13T03:10:37;53.40;;;19.10;;
76777;SDS011;65721;50.118;8.714;2022-12-13T03:13:22;52.60;;;18.00;;
76777;SDS011;65721;50.118;8.714;2022-12-13T03:16:23;20.60;;;8.10;;
76777;SDS011;65721;50.118;8.714;2022-12-13T03:18:57;19.20;;;9.20;;
76777;SDS011;65721;50.118;8.714;2022-12-13T03:21:25;18.50;;;7.80;;
76777;SDS011;65721;50.118;8.714;2022-12-13T03:23:51;18.40;;;8.60;;
76777;SDS011;65721;50.118;8.714;2022-12-13T03:26:18;12.50;;;7.30;;
76777;SDS011;65721;50.118;8.714;2022-12-13T03:28:45;19.20;;;7.80;;
76777;SDS011;65721;50.118;8.714;2022-12-13T03:31:11;19.80;;;8.40;;
76777;SDS011;65721;50.118;8.714;2022-12-13T03:33:37;16.40;;;8.40;;
76777;SDS011;65721;50.118;8.714;2022-12-13T03:36:03;17.90;;;7.50;;
76777;SDS011;65721;50.118;8.714;2022-12-13T03:38:29;14.60;;;6.80;;
76777;SDS011;65721;50.118;8.714;2022-12-13T03:40:59;17.20;;;8.60;;
76777;SDS011;65721;50.118;8.714;2022-12-13T03:43:30;15.30;;;8.10;;
76777;SDS011;65721;50.118;8.714;2022-12-13T03:45:55;18.10;;;7.90;;
76777;SDS011;65721;50.118;8.714;2022-12-13T03:48:21;16.80;;;8.20;;
76777;SDS011;65721;50.118;8.714;2022-12-13T03:50:47;17.10;;;8.20;;
76777;SDS011;65721;50.118;8.714;2022-12-13T03:53:13;17.60;;;7.90;;
76777;SDS011;65721;50.118;8.714;2022-12-13T03:55:39;18.00;;;8.20;;
76777;SDS011;65721;50.118;8.714;2022-12-13T03:58:04;17.70;;;7.60;;
76777;SDS011;65721;50.118;8.714;2022-12-13T04:00:30;14.60;;;7.80;;
76777;SDS011;65721;50.118;8.714;2022-12-13T04:02:55;14.90;;;8.00;;
76777;SDS011;65721;50.118;8.714;2022-12-13T04:05:21;14.90;;;7.40;;
76777;SDS011;65721;50.118;8.714;2022-12-13T04:07:46;15.80;;;7.70;;
76777;SDS011;65721;50.118;8.714;2022-12-13T04:10:12;15.60;;;7.20;;
76777;SDS011;65721;50.118;8.714;2022-12-13T04:12:38;15.90;;;7.00;;
76777;SDS011;65721;50.118;8.714;2022-12-13T04:15:22;13.50;;;6.20;;
76777;SDS011;65721;50.118;8.714;2022-12-13T04:17:47;15.10;;;7.40;;
76777;SDS011;65721;50.118;8.714;2022-12-13T04:20:13;14.10;;;6.80;;
76777;SDS011;65721;50.118;8.714;2022-12-13T04:22:38;16.60;;;7.40;;
76777;SDS011;65721;50.118;8.714;2022-12-13T04:25:04;16.70;;;6.90;;
76777;SDS011;65721;50.118;8.714;2022-12-13T04:27:30;25.60;;;11.00;;
76777;SDS011;65721;50.118;8.714;2022-12-13T04:29:55;47.30;;;14.80;;
76777;SDS011;65721;50.118;8.714;2022-12-13T04:32:21;54.10;;;15.80;;
76777;SDS011;65721;50.118;8.714;2022-12-13T04:34:47;45.40;;;16.20;;
76777;SDS011;65721;50.118;8.714;2022-12-13T04:37:12;18.00;;;7.70;;
76777;SDS011;65721;50.118;8.714;2022-12-13T04:39:39;13.70;;;7.20;;
76777;SDS011;65721;50.118;8.714;2022-12-13T04:42:04;17.30;;;6.90;;
76777;SDS011;65721;50.118;8.714;2022-12-13T04:44:30;14.60;;;7.40;;
76777;SDS011;65721;50.118;8.714;2022-12-13T04:46:56;14.30;;;6.70;;
76777;SDS011;65721;50.118;8.714;2022-12-13T04:49:22;15.40;;;6.30;;
76777;SDS011;65721;50.118;8.714;2022-12-13T04:51:47;18.40;;;7.20;;
76777;SDS011;65721;50.118;8.714;2022-12-13T04:54:13;13.50;;;6.40;;
76777;SDS011;65721;50.118;8.714;2022-12-13T04:56:39;15.20;;;8.10;;
76777;SDS011;65721;50.118;8.714;2022-12-13T04:59:04;15.80;;;7.10;;
76777;SDS011;65721;50.118;8.714;2022-12-13T05:01:29;16.60;;;7.50;;
76777;SDS011;65721;50.118;8.714;2022-12-13T05:03:55;16.20;;;6.80;;
76777;SDS011;65721;50.118;8.714;2022-12-13T05:06:20;13.90;;;7.20;;
76777;SDS011;65721;50.118;8.714;2022-12-13T05:08:46;16.80;;;8.00;;
76777;SDS011;65721;50.118;8.714;2022-12-13T05:11:12;19.40;;;7.50;;
76777;SDS011;65721;50.118;8.714;2022-12-13T05:13:37;17.00;;;7.60;;
76777;SDS011;65721;50.118;8.714;2022-12-13T05:16:05;19.20;;;7.10;;
76777;SDS011;65721;50.118;8.714;2022-12-13T05:18:32;15.20;;;7.00;;
76777;SDS011;65721;50.118;8.714;2022-12-13T05:21:03;19.70;;;8.00;;
76777;SDS011;65721;50.118;8.714;2022-12-13T05:23:30;15.90;;;7.20;;
76777;SDS011;65721;50.118;8.714;2022-12-13T05:25:57;19.10;;;8.30;;
76777;SDS011;65721;50.118;8.714;2022-12-13T05:28:23;17.30;;;8.20;;
76777;SDS011;65721;50.118;8.714;2022-12-13T05:30:51;16.90;;;7.30;;
76777;SDS011;65721;50.118;8.714;2022-12-13T05:33:17;13.40;;;7.20;;
76777;SDS011;65721;50.118;8.714;2022-12-13T05:35:42;16.30;;;7.60;;
76777;SDS011;65721;50.118;8.714;2022-12-13T05:38:08;14.20;;;7.10;;
76777;SDS011;65721;50.118;8.714;2022-12-13T05:40:34;16.20;;;7.40;;
76777;SDS011;65721;50.118;8.714;2022-12-13T05:42:59;18.00;;;7.10;;
76777;SDS011;65721;50.118;8.714;2022-12-13T05:45:25;26.20;;;9.20;;
76777;SDS011;65721;50.118;8.714;2022-12-13T05:47:51;44.60;;;14.00;;
76777;SDS011;65721;50.118;8.714;2022-12-13T05:50:17;47.90;;;15.60;;
76777;SDS011;65721;50.118;8.714;2022-12-13T05:52:42;56.10;;;16.90;;
76777;SDS011;65721;50.118;8.714;2022-12-13T05:55:08;16.40;;;8.90;;
76777;SDS011;65721;50.118;8.714;2022-12-13T05:57:35;15.50;;;7.40;;
76777;SDS011;65721;50.118;8.714;2022-12-13T06:00:00;13.60;;;7.90;;
76777;SDS011;65721;50.118;8.714;2022-12-13T06:02:27;15.60;;;7.00;;
76777;SDS011;65721;50.118;8.714;2022-12-13T06:04:52;16.60;;;8.00;;
76777;SDS011;65721;50.118;8.714;2022-12-13T06:07:18;16.60;;;7.20;;
76777;SDS011;65721;50.118;8.714;2022-12-13T06:09:44;17.40;;;8.10;;
76777;SDS011;65721;50.118;8.714;2022-12-13T06:12:09;16.80;;;6.50;;
76777;SDS011;65721;50.118;8.714;2022-12-13T06:14:35;16.80;;;7.00;;
76777;SDS011;65721;50.118;8.714;2022-12-13T06:17:01;16.30;;;7.20;;
76777;SDS011;65721;50.118;8.714;2022-12-13T06:19:27;14.60;;;7.20;;
76777;SDS011;65721;50.118;8.714;2022-12-13T06:21:53;14.20;;;6.40;;
76777;SDS011;65721;50.118;8.714;2022-12-13T06:24:20;16.30;;;6.20;;
76777;SDS011;65721;50.118;8.714;2022-12-13T06:26:47;13.50;;;7.40;;
76777;SDS011;65721;50.118;8.714;2022-12-13T06:29:14;14.40;;;6.60;;
76777;SDS011;65721;50.118;8.714;2022-12-13T06:31:41;13.60;;;6.90;;
76777;SDS011;65721;50.118;8.714;2022-12-13T06:34:07;14.50;;;6.60;;
76777;SDS011;65721;50.118;8.714;2022-12-13T06:36:32;15.50;;;7.10;;
76777;SDS011;65721;50.118;8.714;2022-12-13T06:39:02;15.50;;;6.70;;
76777;SDS011;65721;50.118;8.714;2022-12-13T06:41:29;17.90;;;7.40;;
76777;SDS011;65721;50.118;8.714;2022-12-13T06:43:54;17.80;;;7.90;;
76777;SDS011;65721;50.118;8.714;2022-12-13T06:46:20;15.20;;;6.50;;
76777;SDS011;65721;50.118;8.714;2022-12-13T06:48:45;16.60;;;7.00;;
76777;SDS011;65721;50.118;8.714;2022-12-13T06:51:12;14.80;;;6.90;;
76777;SDS011;65721;50.118;8.714;2022-12-13T06:53:38;15.10;;;6.90;;
76777;SDS011;65721;50.118;8.714;2022-12-13T06:56:12;12.80;;;5.80;;
76777;SDS011;65721;50.118;8.714;2022-12-13T06:58:39;15.70;;;6.40;;
76777;SDS011;65721;50.118;8.714;2022-12-13T07:01:09;14.10;;;6.60;;
76777;SDS011;65721;50.118;8.714;2022-12-13T07:03:36;26.70;;;9.70;;
76777;SDS011;65721;50.118;8.714;2022-12-13T07:06:05;47.30;;;14.60;;
76777;SDS011;65721;50.118;8.714;2022-12-13T07:08:33;56.20;;;16.80;;
76777;SDS011;65721;50.118;8.714;2022-12-13T07:11:00;49.00;;;16.30;;
76777;SDS011;65721;50.118;8.714;2022-12-13T07:13:26;15.90;;;6.50;;
76777;SDS011;65721;50.118;8.714;2022-12-13T07:15:52;18.00;;;8.00;;
76777;SDS011;65721;50.118;8.714;2022-12-13T07:18:18;13.40;;;6.40;;
76777;SDS011;65721;50.118;8.714;2022-12-13T07:20:44;17.00;;;7.40;;
76777;SDS011;65721;50.118;8.714;2022-12-13T07:23:09;12.20;;;6.10;;
76777;SDS011;65721;50.118;8.714;2022-12-13T07:25:36;17.30;;;7.00;;
76777;SDS011;65721;50.118;8.714;2022-12-13T07:28:04;14.90;;;8.00;;
76777;SDS011;65721;50.118;8.714;2022-12-13T07:30:33;16.10;;;6.70;;
76777;SDS011;65721;50.118;8.714;2022-12-13T07:33:00;15.00;;;6.70;;
76777;SDS011;65721;50.118;8.714;2022-12-13T07:35:28;12.40;;;6.50;;
76777;SDS011;65721;50.118;8.714;2022-12-13T07:37:54;16.90;;;8.10;;
76777;SDS011;65721;50.118;8.714;2022-12-13T07:40:20;18.00;;;7.40;;
76777;SDS011;65721;50.118;8.714;2022-12-13T07:42:49;15.00;;;6.60;;
76777;SDS011;65721;50.118;8.714;2022-12-13T07:45:15;10.50;;;5.10;;
76777;SDS011;65721;50.118;8.714;2022-12-13T07:47:40;13.80;;;6.80;;
76777;SDS011;65721;50.118;8.714;2022-12-13T07:50:06;13.50;;;6.80;;
76777;SDS011;65721;50.118;8.714;2022-12-13T07:52:32;16.20;;;6.30;;
76777;SDS011;65721;50.118;8.714;2022-12-13T07:54:57;15.90;;;6.70;;
76777;SDS011;65721;50.118;8.714;2022-12-13T07:57:23;11.50;;;6.40;;
76777;SDS011;65721;50.118;8.714;2022-12-13T07:59:49;14.30;;;6.10;;
76777;SDS011;65721;50.118;8.714;2022-12-13T08:02:14;14.30;;;6.70;;
76777;SDS011;65721;50.118;8.714;2022-12-13T08:04:41;16.70;;;7.20;;
76777;SDS011;65721;50.118;8.714;2022-12-13T08:07:07;15.40;;;6.40;;
76777;SDS011;65721;50.118;8.714;2022-12-13T08:09:33;14.60;;;7.20;;
76777;SDS011;65721;50.118;8.714;2022-12-13T08:11:59;14.20;;;7.80;;
76777;SDS011;65721;50.118;8.714;2022-12-13T08:14:25;13.70;;;6.70;;
76777;SDS011;65721;50.118;8.714;2022-12-13T08:16:51;15.10;;;7.30;;
76777;SDS011;65721;50.118;8.714;2022-12-13T08:19:17;17.60;;;7.40;;
76777;SDS011;65721;50.118;8.714;2022-12-13T08:21:43;15.70;;;6.90;;
76777;SDS011;65721;50.118;8.714;2022-12-13T08:24:09;16.30;;;7.00;;
76777;SDS011;65721;50.118;8.714;2022-12-13T08:26:34;21.30;;;9.20;;
76777;SDS011;65721;50.118;8.714;2022-12-13T08:29:00;41.20;;;14.10;;
76777;SDS011;65721;50.118;8.714;2022-12-13T08:31:26;51.60;;;15.60;;
76777;SDS011;65721;50.118;8.714;2022-12-13T08:33:51;34.70;;;12.90;;
76777;SDS011;65721;50.118;8.714;2022-12-13T08:36:17;21.60;;;9.40;;
76777;SDS011;65721;50.118;8.714;2022-12-13T08:38:43;18.30;;;7.90;;
76777;SDS011;65721;50.118;8.714;2022-12-13T08:41:09;15.90;;;8.10;;
76777;SDS011;65721;50.118;8.714;2022-12-13T08:43:36;17.60;;;8.10;;
76777;SDS011;65721;50.118;8.714;2022-12-13T08:46:02;14.40;;;7.30;;
76777;SDS011;65721;50.118;8.714;2022-12-13T08:48:28;18.10;;;9.00;;
76777;SDS011;65721;50.118;8.714;2022-12-13T08:50:58;15.50;;;7.10;;
76777;SDS011;65721;50.118;8.714;2022-12-13T08:53:24;12.20;;;5.70;;
76777;SDS011;65721;50.118;8.714;2022-12-13T08:55:50;17.10;;;8.10;;
76777;SDS011;65721;50.118;8.714;2022-12-13T08:58:16;17.30;;;8.10;;
76777;SDS011;65721;50.118;8.714;2022-12-13T09:00:41;17.50;;;8.30;;
76777;SDS011;65721;50.118;8.714;2022-12-13T09:03:09;16.50;;;7.00;;
76777;SDS011;65721;50.118;8.714;2022-12-13T09:05:35;16.30;;;7.50;;
76777;SDS011;65721;50.118;8.714;2022-12-13T09:08:00;17.40;;;7.30;;
76777;SDS011;65721;50.118;8.714;2022-12-13T09:10:28;18.40;;;7.90;;
76777;SDS011;65721;50.118;8.714;2022-12-13T09:12:55;17.70;;;8.20;;
76777;SDS011;65721;50.118;8.714;2022-12-13T09:15:26;15.70;;;7.40;;
76777;SDS011;65721;50.118;8.714;2022-12-13T09:17:52;19.40;;;7.90;;
76777;SDS011;65721;50.118;8.714;2022-12-13T09:20:18;19.30;;;7.90;;
76777;SDS011;65721;50.118;8.714;2022-12-13T09:22:44;14.50;;;7.30;;
76777;SDS011;65721;50.118;8.714;2022-12-13T09:25:10;15.10;;;6.70;;
76777;SDS011;65721;50.118;8.714;2022-12-13T09:27:35;18.90;;;7.80;;
76777;SDS011;65721;50.118;8.714;2022-12-13T09:30:01;16.10;;;7.30;;
76777;SDS011;65721;50.118;8.714;2022-12-13T09:32:27;15.20;;;7.70;;
76777;SDS011;65721;50.118;8.714;2022-12-13T09:34:53;17.20;;;7.60;;
76777;SDS011;65721;50.118;8.714;2022-12-13T09:37:19;16.60;;;7.40;;
76777;SDS011;65721;50.118;8.714;2022-12-13T09:39:44;24.70;;;9.80;;
76777;SDS011;65721;50.118;8.714;2022-12-13T09:42:15;38.40;;;14.70;;
76777;SDS011;65721;50.118;8.714;2022-12-13T09:44:49;32.80;;;13.10;;
76777;SDS011;65721;50.118;8.714;2022-12-13T09:47:39;17.90;;;9.20;;
76777;SDS011;65721;50.118;8.714;2022-12-13T09:50:12;14.60;;;7.40;;
76777;SDS011;65721;50.118;8.714;2022-12-13T09:52:41;16.70;;;7.40;;
76777;SDS011;65721;50.118;8.714;2022-12-13T09:57:45;14.70;;;7.80;;
76777;SDS011;65721;50.118;8.714;2022-12-13T10:00:16;16.10;;;8.60;;
76777;SDS011;65721;50.118;8.714;2022-12-13T10:02:45;14.10;;;7.00;;
76777;SDS011;65721;50.118;8.714;2022-12-13T10:05:14;17.00;;;8.20;;
76777;SDS011;65721;50.118;8.714;2022-12-13T10:07:41;20.70;;;10.20;;
76777;SDS011;65721;50.118;8.714;2022-12-13T10:10:08;18.50;;;8.50;;
76777;SDS011;65721;50.118;8.714;2022-12-13T10:12:35;18.40;;;8.40;;
76777;SDS011;65721;50.118;8.714;2022-12-13T10:15:01;15.90;;;7.40;;
76777;SDS011;65721;50.118;8.714;2022-12-13T10:17:30;16.10;;;8.00;;
76777;SDS011;65721;50.118;8.714;2022-12-13T10:19:58;15.70;;;8.20;;
76777;SDS011;65721;50.118;8.714;2022-12-13T10:22:25;18.10;;;8.10;;
76777;SDS011;65721;50.118;8.714;2022-12-13T10:24:54;19.50;;;8.90;;
76777;SDS011;65721;50.118;8.714;2022-12-13T10:27:37;16.10;;;8.00;;
76777;SDS011;65721;50.118;8.714;2022-12-13T10:30:19;14.70;;;7.70;;
76777;SDS011;65721;50.118;8.714;2022-12-13T10:32:54;14.20;;;7.00;;
76777;SDS011;65721;50.118;8.714;2022-12-13T10:35:21;15.30;;;7.80;;
76777;SDS011;65721;50.118;8.714;2022-12-13T10:37:49;13.60;;;7.40;;
76777;SDS011;65721;50.118;8.714;2022-12-13T10:43:25;16.10;;;8.00;;
76777;SDS011;65721;50.118;8.714;2022-12-13T10:45:56;14.80;;;7.70;;
76777;SDS011;65721;50.118;8.714;2022-12-13T10:48:25;14.80;;;7.80;;
76777;SDS011;65721;50.118;8.714;2022-12-13T10:51:12;15.40;;;7.60;;
76777;SDS011;65721;50.118;8.714;2022-12-13T10:56:12;18.80;;;7.90;;
76777;SDS011;65721;50.118;8.714;2022-12-13T10:58:39;14.70;;;7.80;;
76777;SDS011;65721;50.118;8.714;2022-12-13T11:01:20;14.80;;;7.60;;
76777;SDS011;65721;50.118;8.714;2022-12-13T11:04:31;15.90;;;8.20;;
76777;SDS011;65721;50.118;8.714;2022-12-13T11:07:01;17.50;;;8.90;;
76777;SDS011;65721;50.118;8.714;2022-12-13T11:09:46;16.80;;;8.00;;
76777;SDS011;65721;50.118;8.714;2022-12-13T11:12:12;15.90;;;10.50;;
76777;SDS011;65721;50.118;8.714;2022-12-13T11:14:52;14.10;;;8.60;;
76777;SDS011;65721;50.118;8.714;2022-12-13T11:17:26;23.20;;;12.40;;
76777;SDS011;65721;50.118;8.714;2022-12-13T11:19:55;25.90;;;16.40;;
76777;SDS011;65721;50.118;8.714;2022-12-13T11:22:25;17.30;;;11.00;;
76777;SDS011;65721;50.118;8.714;2022-12-13T11:24:57;13.10;;;9.80;;
76777;SDS011;65721;50.118;8.714;2022-12-13T11:27:59;14.40;;;10.60;;
76777;SDS011;65721;50.118;8.714;2022-12-13T11:30:45;12.00;;;9.20;;
76777;SDS011;65721;50.118;8.714;2022-12-13T11:41:42;12.40;;;10.30;;
76777;SDS011;65721;50.118;8.714;2022-12-13T11:47:04;14.50;;;13.10;;
76777;SDS011;65721;50.118;8.714;2022-12-13T11:49:37;14.80;;;13.20;;
76777;SDS011;65721;50.118;8.714;2022-12-13T11:52:08;15.00;;;13.20;;
76777;SDS011;65721;50.118;8.714;2022-12-13T11:54:46;14.10;;;12.70;;
76777;SDS011;65721;50.118;8.714;2022-12-13T11:57:43;13.30;;;12.00;;
76777;SDS011;65721;50.118;8.714;2022-12-13T12:02:54;13.00;;;11.70;;
76777;SDS011;65721;50.118;8.714;2022-12-13T12:05:35;14.50;;;13.10;;
76777;SDS011;65721;50.118;8.714;2022-12-13T12:10:57;13.30;;;11.90;;
76777;SDS011;65721;50.118;8.714;2022-12-13T12:13:37;13.50;;;12.20;;
76777;SDS011;65721;50.118;8.714;2022-12-13T12:16:09;13.60;;;12.20;;
76777;SDS011;65721;50.118;8.714;2022-12-13T12:18:44;12.70;;;11.40;;
76777;SDS011;65721;50.118;8.714;2022-12-13T12:24:08;14.50;;;13.00;;
76777;SDS011;65721;50.118;8.714;2022-12-13T12:32:05;12.80;;;11.50;;
76777;SDS011;65721;50.118;8.714;2022-12-13T12:34:52;13.80;;;12.40;;
76777;SDS011;65721;50.118;8.714;2022-12-13T12:37:49;13.00;;;11.60;;
76777;SDS011;65721;50.118;8.714;2022-12-13T12:46:05;13.20;;;11.80;;
76777;SDS011;65721;50.118;8.714;2022-12-13T12:54:24;12.50;;;11.20;;
76777;SDS011;65721;50.118;8.714;2022-12-13T13:00:11;13.90;;;11.90;;
76777;SDS011;65721;50.118;8.714;2022-12-13T13:05:51;15.40;;;13.60;;
76777;SDS011;65721;50.118;8.714;2022-12-13T13:08:40;14.50;;;12.20;;
76777;SDS011;65721;50.118;8.714;2022-12-13T13:11:06;13.60;;;11.90;;
76777;SDS011;65721;50.118;8.714;2022-12-13T13:18:50;14.50;;;12.80;;
76777;SDS011;65721;50.118;8.714;2022-12-13T13:26:29;14.30;;;11.20;;
76777;SDS011;65721;50.118;8.714;2022-12-13T13:34:25;14.10;;;9.70;;
76777;SDS011;65721;50.118;8.714;2022-12-13T13:36:52;15.20;;;10.60;;
76777;SDS011;65721;50.118;8.714;2022-12-13T13:41:52;14.90;;;10.00;;
76777;SDS011;65721;50.118;8.714;2022-12-13T13:44:34;14.00;;;9.50;;
76777;SDS011;65721;50.118;8.714;2022-12-13T13:49:53;13.80;;;8.70;;
76777;SDS011;65721;50.118;8.714;2022-12-13T13:55:37;14.10;;;9.40;;
76777;SDS011;65721;50.118;8.714;2022-12-13T14:04:08;13.60;;;8.80;;
76777;SDS011;65721;50.118;8.714;2022-12-13T14:06:45;15.70;;;9.40;;
76777;SDS011;65721;50.118;8.714;2022-12-13T14:09:37;14.90;;;9.20;;
76777;SDS011;65721;50.118;8.714;2022-12-13T14:25:55;15.60;;;8.60;;
76777;SDS011;65721;50.118;8.714;2022-12-13T14:28:48;15.70;;;8.60;;
76777;SDS011;65721;50.118;8.714;2022-12-13T14:31:19;16.00;;;7.90;;
76777;SDS011;65721;50.118;8.714;2022-12-13T14:33:47;14.80;;;9.00;;
76777;SDS011;65721;50.118;8.714;2022-12-13T14:36:15;14.80;;;8.60;;
76777;SDS011;65721;50.118;8.714;2022-12-13T14:38:43;14.60;;;7.70;;
76777;SDS011;65721;50.118;8.714;2022-12-13T14:41:14;16.60;;;8.60;;
76777;SDS011;65721;50.118;8.714;2022-12-13T14:43:42;13.70;;;7.90;;
76777;SDS011;65721;50.118;8.714;2022-12-13T14:46:10;15.00;;;7.50;;
76777;SDS011;65721;50.118;8.714;2022-12-13T14:48:45;17.30;;;9.10;;
76777;SDS011;65721;50.118;8.714;2022-12-13T14:51:36;13.70;;;8.30;;
76777;SDS011;65721;50.118;8.714;2022-12-13T14:54:03;15.30;;;7.80;;
76777;SDS011;65721;50.118;8.714;2022-12-13T14:56:31;16.40;;;7.90;;
76777;SDS011;65721;50.118;8.714;2022-12-13T14:59:00;13.60;;;8.40;;
76777;SDS011;65721;50.118;8.714;2022-12-13T15:01:29;17.60;;;8.60;;
76777;SDS011;65721;50.118;8.714;2022-12-13T15:04:18;14.80;;;7.90;;
76777;SDS011;65721;50.118;8.714;2022-12-13T15:09:36;14.90;;;8.20;;
76777;SDS011;65721;50.118;8.714;2022-12-13T15:12:07;17.50;;;8.00;;
76777;SDS011;65721;50.118;8.714;2022-12-13T15:14:37;14.50;;;7.10;;
76777;SDS011;65721;50.118;8.714;2022-12-13T15:17:11;14.20;;;8.20;;
76777;SDS011;65721;50.118;8.714;2022-12-13T15:22:44;16.40;;;7.80;;
76777;SDS011;65721;50.118;8.714;2022-12-13T15:25:13;14.00;;;7.90;;
76777;SDS011;65721;50.118;8.714;2022-12-13T15:27:40;13.90;;;7.70;;
76777;SDS011;65721;50.118;8.714;2022-12-13T15:30:11;16.70;;;7.70;;
76777;SDS011;65721;50.118;8.714;2022-12-13T15:33:00;14.10;;;7.10;;
76777;SDS011;65721;50.118;8.714;2022-12-13T15:35:43;14.40;;;7.70;;
76777;SDS011;65721;50.118;8.714;2022-12-13T15:38:16;15.30;;;7.70;;
76777;SDS011;65721;50.118;8.714;2022-12-13T15:40:47;14.10;;;6.80;;
76777;SDS011;65721;50.118;8.714;2022-12-13T15:43:43;14.40;;;6.60;;
76777;SDS011;65721;50.118;8.714;2022-12-13T15:46:12;14.50;;;7.60;;
76777;SDS011;65721;50.118;8.714;2022-12-13T15:48:39;14.00;;;8.00;;
76777;SDS011;65721;50.118;8.714;2022-12-13T15:53:34;14.40;;;7.60;;
76777;SDS011;65721;50.118;8.714;2022-12-13T15:56:00;15.90;;;7.50;;
76777;SDS011;65721;50.118;8.714;2022-12-13T15:58:32;13.40;;;8.50;;
76777;SDS011;65721;50.118;8.714;2022-12-13T16:01:00;15.40;;;6.90;;
76777;SDS011;65721;50.118;8.714;2022-12-13T16:03:50;14.90;;;6.70;;
76777;SDS011;65721;50.118;8.714;2022-12-13T16:06:16;15.10;;;8.40;;
76777;SDS011;65721;50.118;8.714;2022-12-13T16:08:42;14.90;;;7.70;;
76777;SDS011;65721;50.118;8.714;2022-12-13T16:11:13;13.90;;;7.30;;
76777;SDS011;65721;50.118;8.714;2022-12-13T16:13:40;16.10;;;8.00;;
76777;SDS011;65721;50.118;8.714;2022-12-13T16:18:41;13.00;;;7.30;;
76777;SDS011;65721;50.118;8.714;2022-12-13T16:21:10;16.00;;;7.80;;
76777;SDS011;65721;50.118;8.714;2022-12-13T16:23:36;13.40;;;7.10;;
76777;SDS011;65721;50.118;8.714;2022-12-13T16:26:01;12.90;;;6.50;;
76777;SDS011;65721;50.118;8.714;2022-12-13T16:28:28;11.10;;;6.00;;
76777;SDS011;65721;50.118;8.714;2022-12-13T16:31:08;12.00;;;6.10;;
76777;SDS011;65721;50.118;8.714;2022-12-13T16:33:45;9.50;;;5.20;;
76777;SDS011;65721;50.118;8.714;2022-12-13T16:36:10;11.80;;;5.90;;
76777;SDS011;65721;50.118;8.714;2022-12-13T16:38:36;10.30;;;5.30;;
76777;SDS011;65721;50.118;8.714;2022-12-13T16:41:02;12.20;;;5.70;;
76777;SDS011;65721;50.118;8.714;2022-12-13T16:43:28;8.60;;;5.50;;
76777;SDS011;65721;50.118;8.714;2022-12-13T16:45:57;8.60;;;5.00;;
76777;SDS011;65721;50.118;8.714;2022-12-13T16:48:23;9.10;;;4.70;;
76777;SDS011;65721;50.118;8.714;2022-12-13T16:50:50;9.00;;;5.30;;
76777;SDS011;65721;50.118;8.714;2022-12-13T16:53:16;8.60;;;4.60;;